sensor_id;sensor_type;location;lat;lon;timestamp;P1;durP1;ratioP1;P2;durP2;ratioP2
1591;SDS011;789;51.612;7.510;2023-04-01T00:00:55;6.20;;;1.83;;
1591;SDS011;789;51.612;7.510;2023-04-01T00:03:25;2.60;;;1.70;;
1591;SDS011;789;51.612;7.510;2023-04-01T00:05:52;3.83;;;2.00;;
1591;SDS011;789;51.612;7.510;2023-04-01T00:08:19;3.30;;;1.53;;
1591;SDS011;789;51.612;7.510;2023-04-01T00:10:46;7.10;;;2.40;;
1591;SDS011;789;51.612;7.510;2023-04-01T00:13:14;4.27;;;1.80;;
1591;SDS011;789;51.612;7.510;2023-04-01T00:15:41;5.30;;;2.13;;
1591;SDS011;789;51.612;7.510;2023-04-01T00:18:08;4.63;;;2.03;;
1591;SDS011;789;51.612;7.510;2023-04-01T00:20:37;4.50;;;1.90;;
1591;SDS011;789;51.612;7.510;2023-04-01T00:23:04;4.27;;;1.90;;
1591;SDS011;789;51.612;7.510;2023-04-01T00:25:31;3.63;;;1.80;;
1591;SDS011;789;51.612;7.510;2023-04-01T00:27:58;3.10;;;2.20;;
1591;SDS011;789;51.612;7.510;2023-04-01T00:30:25;3.10;;;1.80;;
1591;SDS011;789;51.612;7.510;2023-04-01T00:32:51;3.57;;;1.80;;
1591;SDS011;789;51.612;7.510;2023-04-01T00:35:18;2.30;;;1.80;;
1591;SDS011;789;51.612;7.510;2023-04-01T00:37:47;5.87;;;2.10;;
1591;SDS011;789;51.612;7.510;2023-04-01T00:40:21;1.63;;;1.53;;
1591;SDS011;789;51.612;7.510;2023-04-01T00:42:51;5.50;;;3.30;;
1591;SDS011;789;51.612;7.510;2023-04-01T00:45:25;4.77;;;2.33;;
1591;SDS011;789;51.612;7.510;2023-04-01T00:47:55;5.17;;;2.20;;
1591;SDS011;789;51.612;7.510;2023-04-01T00:50:25;3.20;;;2.03;;
1591;SDS011;789;51.612;7.510;2023-04-01T00:52:55;6.10;;;2.13;;
1591;SDS011;789;51.612;7.510;2023-04-01T00:55:23;3.87;;;1.97;;
1591;SDS011;789;51.612;7.510;2023-04-01T00:57:53;3.63;;;2.60;;
1591;SDS011;789;51.612;7.510;2023-04-01T01:00:23;4.57;;;3.03;;
1591;SDS011;789;51.612;7.510;2023-04-01T01:02:51;3.80;;;2.47;;
1591;SDS011;789;51.612;7.510;2023-04-01T01:05:18;4.30;;;3.10;;
1591;SDS011;789;51.612;7.510;2023-04-01T01:07:59;2.93;;;2.43;;
1591;SDS011;789;51.612;7.510;2023-04-01T01:10:30;4.53;;;2.40;;
1591;SDS011;789;51.612;7.510;2023-04-01T01:13:01;4.87;;;3.13;;
1591;SDS011;789;51.612;7.510;2023-04-01T01:15:35;3.30;;;2.53;;
1591;SDS011;789;51.612;7.510;2023-04-01T01:18:06;5.53;;;3.83;;
1591;SDS011;789;51.612;7.510;2023-04-01T01:20:42;3.20;;;2.57;;
1591;SDS011;789;51.612;7.510;2023-04-01T01:26:40;4.00;;;3.20;;
1591;SDS011;789;51.612;7.510;2023-04-01T01:29:16;15.27;;;8.40;;
1591;SDS011;789;51.612;7.510;2023-04-01T01:32:03;17.77;;;10.03;;
1591;SDS011;789;51.612;7.510;2023-04-01T01:34:39;24.47;;;14.17;;
1591;SDS011;789;51.612;7.510;2023-04-01T01:37:14;32.40;;;17.77;;
1591;SDS011;789;51.612;7.510;2023-04-01T01:39:44;23.30;;;13.83;;
1591;SDS011;789;51.612;7.510;2023-04-01T01:42:13;9.43;;;7.93;;
1591;SDS011;789;51.612;7.510;2023-04-01T01:44:43;10.80;;;8.47;;
1591;SDS011;789;51.612;7.510;2023-04-01T01:47:12;3.53;;;3.00;;
1591;SDS011;789;51.612;7.510;2023-04-01T01:49:41;5.40;;;2.80;;
1591;SDS011;789;51.612;7.510;2023-04-01T01:52:09;5.30;;;3.63;;
1591;SDS011;789;51.612;7.510;2023-04-01T01:54:47;2.87;;;2.23;;
1591;SDS011;789;51.612;7.510;2023-04-01T01:57:14;3.80;;;2.00;;
1591;SDS011;789;51.612;7.510;2023-04-01T01:59:42;4.17;;;1.93;;
1591;SDS011;789;51.612;7.510;2023-04-01T02:02:12;4.07;;;2.20;;
1591;SDS011;789;51.612;7.510;2023-04-01T02:04:40;3.00;;;2.23;;
1591;SDS011;789;51.612;7.510;2023-04-01T02:07:11;2.67;;;1.90;;
1591;SDS011;789;51.612;7.510;2023-04-01T02:09:42;2.47;;;1.87;;
1591;SDS011;789;51.612;7.510;2023-04-01T02:12:12;2.20;;;2.00;;
1591;SDS011;789;51.612;7.510;2023-04-01T02:14:42;2.17;;;1.97;;
1591;SDS011;789;51.612;7.510;2023-04-01T02:17:14;1.77;;;1.67;;
1591;SDS011;789;51.612;7.510;2023-04-01T02:19:45;2.27;;;2.10;;
1591;SDS011;789;51.612;7.510;2023-04-01T02:22:15;2.33;;;2.13;;
1591;SDS011;789;51.612;7.510;2023-04-01T02:24:46;3.00;;;2.60;;
1591;SDS011;789;51.612;7.510;2023-04-01T02:27:16;4.77;;;2.17;;
1591;SDS011;789;51.612;7.510;2023-04-01T02:29:44;5.40;;;3.17;;
1591;SDS011;789;51.612;7.510;2023-04-01T02:32:11;3.40;;;3.10;;
1591;SDS011;789;51.612;7.510;2023-04-01T02:34:40;10.03;;;6.63;;
1591;SDS011;789;51.612;7.510;2023-04-01T02:37:07;6.67;;;4.53;;
1591;SDS011;789;51.612;7.510;2023-04-01T02:39:34;5.77;;;4.03;;
1591;SDS011;789;51.612;7.510;2023-04-01T02:42:01;7.70;;;5.20;;
1591;SDS011;789;51.612;7.510;2023-04-01T02:44:43;5.37;;;3.70;;
1591;SDS011;789;51.612;7.510;2023-04-01T02:47:10;4.00;;;2.73;;
1591;SDS011;789;51.612;7.510;2023-04-01T02:49:37;7.37;;;4.40;;
1591;SDS011;789;51.612;7.510;2023-04-01T02:52:04;5.60;;;4.57;;
1591;SDS011;789;51.612;7.510;2023-04-01T02:54:30;6.80;;;3.90;;
1591;SDS011;789;51.612;7.510;2023-04-01T02:56:57;11.53;;;6.33;;
1591;SDS011;789;51.612;7.510;2023-04-01T02:59:24;3.83;;;3.37;;
1591;SDS011;789;51.612;7.510;2023-04-01T03:01:54;8.33;;;4.33;;
1591;SDS011;789;51.612;7.510;2023-04-01T03:04:21;2.73;;;2.23;;
1591;SDS011;789;51.612;7.510;2023-04-01T03:06:48;4.10;;;2.47;;
1591;SDS011;789;51.612;7.510;2023-04-01T03:09:15;3.80;;;2.53;;
1591;SDS011;789;51.612;7.510;2023-04-01T03:11:41;3.20;;;2.93;;
1591;SDS011;789;51.612;7.510;2023-04-01T03:14:08;2.30;;;2.10;;
1591;SDS011;789;51.612;7.510;2023-04-01T03:16:35;2.33;;;2.00;;
1591;SDS011;789;51.612;7.510;2023-04-01T03:19:03;1.87;;;1.70;;
1591;SDS011;789;51.612;7.510;2023-04-01T03:21:30;1.87;;;1.77;;
1591;SDS011;789;51.612;7.510;2023-04-01T03:23:57;1.90;;;1.70;;
1591;SDS011;789;51.612;7.510;2023-04-01T03:26:24;1.40;;;1.33;;
1591;SDS011;789;51.612;7.510;2023-04-01T03:28:52;1.33;;;1.23;;
1591;SDS011;789;51.612;7.510;2023-04-01T03:31:19;4.00;;;1.30;;
1591;SDS011;789;51.612;7.510;2023-04-01T03:33:46;1.30;;;1.20;;
1591;SDS011;789;51.612;7.510;2023-04-01T03:36:15;1.40;;;1.10;;
1591;SDS011;789;51.612;7.510;2023-04-01T03:38:42;1.23;;;1.10;;
1591;SDS011;789;51.612;7.510;2023-04-01T03:41:11;1.20;;;1.13;;
1591;SDS011;789;51.612;7.510;2023-04-01T03:43:38;1.93;;;1.10;;
1591;SDS011;789;51.612;7.510;2023-04-01T03:46:05;3.40;;;1.50;;
1591;SDS011;789;51.612;7.510;2023-04-01T03:48:32;1.40;;;1.30;;
1591;SDS011;789;51.612;7.510;2023-04-01T03:50:59;1.70;;;1.23;;
1591;SDS011;789;51.612;7.510;2023-04-01T03:53:27;1.63;;;1.30;;
1591;SDS011;789;51.612;7.510;2023-04-01T03:55:53;1.57;;;1.30;;
1591;SDS011;789;51.612;7.510;2023-04-01T03:58:20;1.50;;;1.40;;
1591;SDS011;789;51.612;7.510;2023-04-01T04:00:47;2.17;;;1.33;;
1591;SDS011;789;51.612;7.510;2023-04-01T04:03:14;1.80;;;1.70;;
1591;SDS011;789;51.612;7.510;2023-04-01T04:05:45;1.03;;;0.93;;
1591;SDS011;789;51.612;7.510;2023-04-01T04:08:13;1.33;;;1.00;;
1591;SDS011;789;51.612;7.510;2023-04-01T04:10:41;1.63;;;1.20;;
1591;SDS011;789;51.612;7.510;2023-04-01T04:13:08;1.03;;;0.93;;
1591;SDS011;789;51.612;7.510;2023-04-01T04:15:35;1.57;;;1.00;;
1591;SDS011;789;51.612;7.510;2023-04-01T04:18:04;1.40;;;1.30;;
1591;SDS011;789;51.612;7.510;2023-04-01T04:20:33;1.00;;;1.00;;
1591;SDS011;789;51.612;7.510;2023-04-01T04:23:00;1.30;;;1.30;;
1591;SDS011;789;51.612;7.510;2023-04-01T04:25:27;3.23;;;1.77;;
1591;SDS011;789;51.612;7.510;2023-04-01T04:27:55;1.63;;;1.50;;
1591;SDS011;789;51.612;7.510;2023-04-01T04:30:22;1.93;;;1.70;;
1591;SDS011;789;51.612;7.510;2023-04-01T04:32:49;2.57;;;2.37;;
1591;SDS011;789;51.612;7.510;2023-04-01T04:35:16;2.10;;;1.90;;
1591;SDS011;789;51.612;7.510;2023-04-01T04:37:43;4.97;;;3.17;;
1591;SDS011;789;51.612;7.510;2023-04-01T04:40:10;3.67;;;2.43;;
1591;SDS011;789;51.612;7.510;2023-04-01T04:42:39;2.97;;;2.53;;
1591;SDS011;789;51.612;7.510;2023-04-01T04:45:08;2.00;;;1.90;;
1591;SDS011;789;51.612;7.510;2023-04-01T04:47:36;2.40;;;2.20;;
1591;SDS011;789;51.612;7.510;2023-04-01T04:50:03;3.00;;;2.70;;
1591;SDS011;789;51.612;7.510;2023-04-01T04:52:31;3.50;;;2.37;;
1591;SDS011;789;51.612;7.510;2023-04-01T04:54:58;2.00;;;1.90;;
1591;SDS011;789;51.612;7.510;2023-04-01T04:57:24;3.20;;;2.07;;
1591;SDS011;789;51.612;7.510;2023-04-01T04:59:51;2.13;;;1.93;;
1591;SDS011;789;51.612;7.510;2023-04-01T05:02:20;3.33;;;2.17;;
1591;SDS011;789;51.612;7.510;2023-04-01T05:04:47;2.87;;;2.67;;
1591;SDS011;789;51.612;7.510;2023-04-01T05:07:13;2.70;;;2.50;;
1591;SDS011;789;51.612;7.510;2023-04-01T05:09:40;3.00;;;2.80;;
1591;SDS011;789;51.612;7.510;2023-04-01T05:12:07;3.53;;;3.03;;
1591;SDS011;789;51.612;7.510;2023-04-01T05:14:34;5.80;;;3.30;;
1591;SDS011;789;51.612;7.510;2023-04-01T05:17:00;6.33;;;3.90;;
1591;SDS011;789;51.612;7.510;2023-04-01T05:19:28;4.00;;;3.60;;
1591;SDS011;789;51.612;7.510;2023-04-01T05:21:55;5.30;;;4.50;;
1591;SDS011;789;51.612;7.510;2023-04-01T05:24:22;4.50;;;3.70;;
1591;SDS011;789;51.612;7.510;2023-04-01T05:26:49;3.87;;;3.23;;
1591;SDS011;789;51.612;7.510;2023-04-01T05:29:15;3.70;;;3.30;;
1591;SDS011;789;51.612;7.510;2023-04-01T05:31:42;3.43;;;3.20;;
1591;SDS011;789;51.612;7.510;2023-04-01T05:34:09;3.20;;;2.90;;
1591;SDS011;789;51.612;7.510;2023-04-01T05:36:37;5.33;;;2.73;;
1591;SDS011;789;51.612;7.510;2023-04-01T05:39:04;3.23;;;2.83;;
1591;SDS011;789;51.612;7.510;2023-04-01T05:41:31;2.90;;;2.40;;
1591;SDS011;789;51.612;7.510;2023-04-01T05:44:01;4.57;;;3.30;;
1591;SDS011;789;51.612;7.510;2023-04-01T05:46:28;3.40;;;3.10;;
1591;SDS011;789;51.612;7.510;2023-04-01T05:48:55;3.13;;;2.80;;
1591;SDS011;789;51.612;7.510;2023-04-01T05:51:22;2.83;;;2.40;;
1591;SDS011;789;51.612;7.510;2023-04-01T05:53:51;3.10;;;1.90;;
1591;SDS011;789;51.612;7.510;2023-04-01T05:56:18;3.97;;;3.57;;
1591;SDS011;789;51.612;7.510;2023-04-01T05:58:45;5.60;;;3.00;;
1591;SDS011;789;51.612;7.510;2023-04-01T06:01:19;2.67;;;2.47;;
1591;SDS011;789;51.612;7.510;2023-04-01T06:03:46;3.00;;;2.73;;
1591;SDS011;789;51.612;7.510;2023-04-01T06:06:13;2.50;;;2.30;;
1591;SDS011;789;51.612;7.510;2023-04-01T06:08:41;3.43;;;2.70;;
1591;SDS011;789;51.612;7.510;2023-04-01T06:11:15;2.87;;;2.67;;
1591;SDS011;789;51.612;7.510;2023-04-01T06:14:04;2.57;;;2.37;;
1591;SDS011;789;51.612;7.510;2023-04-01T06:16:50;2.87;;;2.67;;
1591;SDS011;789;51.612;7.510;2023-04-01T06:19:30;3.37;;;3.07;;
1591;SDS011;789;51.612;7.510;2023-04-01T06:22:18;2.67;;;2.47;;
1591;SDS011;789;51.612;7.510;2023-04-01T06:25:07;2.07;;;1.97;;
1591;SDS011;789;51.612;7.510;2023-04-01T06:31:05;2.77;;;2.57;;
1591;SDS011;789;51.612;7.510;2023-04-01T06:33:54;2.77;;;2.50;;
1591;SDS011;789;51.612;7.510;2023-04-01T06:36:34;2.50;;;2.30;;
1591;SDS011;789;51.612;7.510;2023-04-01T06:42:19;2.40;;;2.20;;
1591;SDS011;789;51.612;7.510;2023-04-01T06:45:13;2.47;;;2.23;;
1591;SDS011;789;51.612;7.510;2023-04-01T06:47:58;2.83;;;2.00;;
1591;SDS011;789;51.612;7.510;2023-04-01T06:50:48;3.03;;;2.27;;
1591;SDS011;789;51.612;7.510;2023-04-01T06:53:23;2.53;;;2.10;;
1591;SDS011;789;51.612;7.510;2023-04-01T06:55:56;2.13;;;2.03;;
1591;SDS011;789;51.612;7.510;2023-04-01T06:58:27;2.13;;;2.00;;
1591;SDS011;789;51.612;7.510;2023-04-01T07:01:00;3.33;;;2.03;;
1591;SDS011;789;51.612;7.510;2023-04-01T07:03:32;3.07;;;2.10;;
1591;SDS011;789;51.612;7.510;2023-04-01T07:06:01;2.70;;;2.50;;
1591;SDS011;789;51.612;7.510;2023-04-01T07:08:30;3.67;;;2.70;;
1591;SDS011;789;51.612;7.510;2023-04-01T07:11:03;2.43;;;2.23;;
1591;SDS011;789;51.612;7.510;2023-04-01T07:13:31;2.17;;;2.07;;
1591;SDS011;789;51.612;7.510;2023-04-01T07:16:06;1.87;;;1.77;;
1591;SDS011;789;51.612;7.510;2023-04-01T07:18:41;1.60;;;1.50;;
1591;SDS011;789;51.612;7.510;2023-04-01T07:21:18;2.13;;;1.90;;
1591;SDS011;789;51.612;7.510;2023-04-01T07:23:49;23.90;;;20.80;;
1591;SDS011;789;51.612;7.510;2023-04-01T07:26:20;2.07;;;1.97;;
1591;SDS011;789;51.612;7.510;2023-04-01T07:28:50;4.40;;;4.00;;
1591;SDS011;789;51.612;7.510;2023-04-01T07:31:28;13.40;;;10.33;;
1591;SDS011;789;51.612;7.510;2023-04-01T07:34:09;3.37;;;2.17;;
1591;SDS011;789;51.612;7.510;2023-04-01T07:36:45;2.10;;;2.00;;
1591;SDS011;789;51.612;7.510;2023-04-01T07:39:21;2.00;;;1.80;;
1591;SDS011;789;51.612;7.510;2023-04-01T07:41:59;2.30;;;1.50;;
1591;SDS011;789;51.612;7.510;2023-04-01T07:44:34;1.77;;;1.67;;
1591;SDS011;789;51.612;7.510;2023-04-01T07:47:20;2.53;;;2.33;;
1591;SDS011;789;51.612;7.510;2023-04-01T07:52:50;2.43;;;2.00;;
1591;SDS011;789;51.612;7.510;2023-04-01T07:55:27;2.63;;;2.43;;
1591;SDS011;789;51.612;7.510;2023-04-01T07:58:04;2.47;;;2.37;;
1591;SDS011;789;51.612;7.510;2023-04-01T08:00:37;5.67;;;3.17;;
1591;SDS011;789;51.612;7.510;2023-04-01T08:03:20;2.30;;;2.20;;
1591;SDS011;789;51.612;7.510;2023-04-01T08:05:58;2.80;;;2.00;;
1591;SDS011;789;51.612;7.510;2023-04-01T08:08:34;2.10;;;2.00;;
1591;SDS011;789;51.612;7.510;2023-04-01T08:11:10;2.43;;;2.00;;
1591;SDS011;789;51.612;7.510;2023-04-01T08:13:44;2.33;;;2.13;;
1591;SDS011;789;51.612;7.510;2023-04-01T08:16:18;2.60;;;2.10;;
1591;SDS011;789;51.612;7.510;2023-04-01T08:18:53;2.73;;;2.00;;
1591;SDS011;789;51.612;7.510;2023-04-01T08:21:30;2.80;;;2.50;;
1591;SDS011;789;51.612;7.510;2023-04-01T08:24:04;3.60;;;2.40;;
1591;SDS011;789;51.612;7.510;2023-04-01T08:26:40;1.93;;;1.77;;
1591;SDS011;789;51.612;7.510;2023-04-01T08:29:11;2.23;;;2.03;;
1591;SDS011;789;51.612;7.510;2023-04-01T08:31:43;2.37;;;2.20;;
1591;SDS011;789;51.612;7.510;2023-04-01T08:34:14;1.90;;;1.80;;
1591;SDS011;789;51.612;7.510;2023-04-01T08:36:47;2.20;;;2.00;;
1591;SDS011;789;51.612;7.510;2023-04-01T08:39:20;2.17;;;1.97;;
1591;SDS011;789;51.612;7.510;2023-04-01T08:41:59;2.27;;;2.07;;
1591;SDS011;789;51.612;7.510;2023-04-01T08:44:58;2.13;;;1.83;;
1591;SDS011;789;51.612;7.510;2023-04-01T08:47:56;2.80;;;2.60;;
1591;SDS011;789;51.612;7.510;2023-04-01T08:53:42;2.63;;;2.43;;
1591;SDS011;789;51.612;7.510;2023-04-01T08:56:17;2.23;;;2.13;;
1591;SDS011;789;51.612;7.510;2023-04-01T08:58:53;2.50;;;2.30;;
1591;SDS011;789;51.612;7.510;2023-04-01T09:01:44;3.27;;;2.70;;
1591;SDS011;789;51.612;7.510;2023-04-01T09:04:25;2.90;;;2.60;;
1591;SDS011;789;51.612;7.510;2023-04-01T09:07:03;4.30;;;2.60;;
1591;SDS011;789;51.612;7.510;2023-04-01T09:09:44;2.67;;;2.47;;
1591;SDS011;789;51.612;7.510;2023-04-01T09:12:28;2.30;;;2.10;;
1591;SDS011;789;51.612;7.510;2023-04-01T09:18:13;2.90;;;2.70;;
1591;SDS011;789;51.612;7.510;2023-04-01T09:21:09;2.90;;;2.70;;
1591;SDS011;789;51.612;7.510;2023-04-01T09:23:55;4.07;;;3.37;;
1591;SDS011;789;51.612;7.510;2023-04-01T09:27:03;3.13;;;2.90;;
1591;SDS011;789;51.612;7.510;2023-04-01T09:29:42;4.27;;;3.70;;
1591;SDS011;789;51.612;7.510;2023-04-01T09:32:41;3.40;;;3.20;;
1591;SDS011;789;51.612;7.510;2023-04-01T09:35:22;5.90;;;3.77;;
1591;SDS011;789;51.612;7.510;2023-04-01T09:38:09;4.10;;;3.80;;
1591;SDS011;789;51.612;7.510;2023-04-01T09:40:47;4.80;;;4.40;;
1591;SDS011;789;51.612;7.510;2023-04-01T09:43:25;4.77;;;4.40;;
1591;SDS011;789;51.612;7.510;2023-04-01T09:45:57;4.20;;;3.80;;
1591;SDS011;789;51.612;7.510;2023-04-01T09:48:39;4.60;;;4.27;;
1591;SDS011;789;51.612;7.510;2023-04-01T09:51:22;4.73;;;4.33;;
1591;SDS011;789;51.612;7.510;2023-04-01T09:54:00;4.37;;;3.97;;
1591;SDS011;789;51.612;7.510;2023-04-01T09:59:58;4.80;;;4.30;;
1591;SDS011;789;51.612;7.510;2023-04-01T10:05:54;5.60;;;4.40;;
1591;SDS011;789;51.612;7.510;2023-04-01T10:08:49;5.00;;;4.60;;
1591;SDS011;789;51.612;7.510;2023-04-01T10:11:39;4.47;;;4.13;;
1591;SDS011;789;51.612;7.510;2023-04-01T10:14:37;6.53;;;5.90;;
1591;SDS011;789;51.612;7.510;2023-04-01T10:20:31;6.27;;;5.77;;
1591;SDS011;789;51.612;7.510;2023-04-01T10:23:23;6.07;;;5.50;;
1591;SDS011;789;51.612;7.510;2023-04-01T10:26:08;7.17;;;6.47;;
1591;SDS011;789;51.612;7.510;2023-04-01T10:32:15;6.97;;;6.27;;
1591;SDS011;789;51.612;7.510;2023-04-01T10:38:31;7.13;;;6.53;;
1591;SDS011;789;51.612;7.510;2023-04-01T10:41:22;8.17;;;7.47;;
1591;SDS011;789;51.612;7.510;2023-04-01T10:44:26;9.30;;;7.53;;
1591;SDS011;789;51.612;7.510;2023-04-01T10:47:25;7.80;;;7.00;;
1591;SDS011;789;51.612;7.510;2023-04-01T10:50:12;7.10;;;6.40;;
1591;SDS011;789;51.612;7.510;2023-04-01T10:53:05;6.93;;;6.43;;
1591;SDS011;789;51.612;7.510;2023-04-01T10:55:50;8.30;;;7.60;;
1591;SDS011;789;51.612;7.510;2023-04-01T11:02:16;6.30;;;5.80;;
1591;SDS011;789;51.612;7.510;2023-04-01T11:08:26;6.50;;;5.90;;
1591;SDS011;789;51.612;7.510;2023-04-01T11:11:19;6.53;;;6.03;;
1591;SDS011;789;51.612;7.510;2023-04-01T11:17:13;6.13;;;5.63;;
1591;SDS011;789;51.612;7.510;2023-04-01T11:26:09;6.77;;;6.17;;
1591;SDS011;789;51.612;7.510;2023-04-01T11:28:51;7.00;;;6.40;;
1591;SDS011;789;51.612;7.510;2023-04-01T11:31:38;6.83;;;6.20;;
1591;SDS011;789;51.612;7.510;2023-04-01T11:34:22;8.47;;;6.13;;
1591;SDS011;789;51.612;7.510;2023-04-01T11:37:15;6.20;;;5.30;;
1591;SDS011;789;51.612;7.510;2023-04-01T11:39:58;5.33;;;4.83;;
1591;SDS011;789;51.612;7.510;2023-04-01T11:42:35;5.63;;;5.23;;
1591;SDS011;789;51.612;7.510;2023-04-01T11:45:11;7.70;;;5.73;;
1591;SDS011;789;51.612;7.510;2023-04-01T11:50:45;6.83;;;6.23;;
1591;SDS011;789;51.612;7.510;2023-04-01T11:53:36;5.60;;;5.20;;
1591;SDS011;789;51.612;7.510;2023-04-01T11:56:13;5.80;;;5.40;;
1591;SDS011;789;51.612;7.510;2023-04-01T12:01:54;4.93;;;4.53;;
1591;SDS011;789;51.612;7.510;2023-04-01T12:07:22;5.27;;;4.77;;
1591;SDS011;789;51.612;7.510;2023-04-01T12:10:12;4.30;;;3.93;;
1591;SDS011;789;51.612;7.510;2023-04-01T12:12:45;4.40;;;4.00;;
1591;SDS011;789;51.612;7.510;2023-04-01T12:15:26;4.53;;;4.13;;
1591;SDS011;789;51.612;7.510;2023-04-01T12:18:02;5.30;;;4.90;;
1591;SDS011;789;51.612;7.510;2023-04-01T12:20:38;4.70;;;4.30;;
1591;SDS011;789;51.612;7.510;2023-04-01T12:23:18;5.83;;;5.10;;
1591;SDS011;789;51.612;7.510;2023-04-01T12:26:19;6.90;;;6.40;;
1591;SDS011;789;51.612;7.510;2023-04-01T12:29:06;8.37;;;7.67;;
1591;SDS011;789;51.612;7.510;2023-04-01T12:31:45;9.40;;;8.60;;
1591;SDS011;789;51.612;7.510;2023-04-01T12:34:25;9.40;;;8.60;;
1591;SDS011;789;51.612;7.510;2023-04-01T12:37:10;10.00;;;8.90;;
1591;SDS011;789;51.612;7.510;2023-04-01T12:39:49;8.70;;;8.10;;
1591;SDS011;789;51.612;7.510;2023-04-01T12:42:31;8.60;;;7.80;;
1591;SDS011;789;51.612;7.510;2023-04-01T12:45:15;8.77;;;7.97;;
1591;SDS011;789;51.612;7.510;2023-04-01T12:48:17;7.90;;;7.20;;
1591;SDS011;789;51.612;7.510;2023-04-01T12:54:04;6.80;;;6.30;;
1591;SDS011;789;51.612;7.510;2023-04-01T12:56:44;6.60;;;6.10;;
1591;SDS011;789;51.612;7.510;2023-04-01T12:59:29;6.70;;;6.00;;
1591;SDS011;789;51.612;7.510;2023-04-01T13:02:12;7.13;;;6.53;;
1591;SDS011;789;51.612;7.510;2023-04-01T13:04:58;7.47;;;6.70;;
1591;SDS011;789;51.612;7.510;2023-04-01T13:10:44;6.63;;;5.90;;
1591;SDS011;789;51.612;7.510;2023-04-01T13:13:34;6.53;;;5.93;;
1591;SDS011;789;51.612;7.510;2023-04-01T13:16:35;6.40;;;5.80;;
1591;SDS011;789;51.612;7.510;2023-04-01T13:19:06;7.03;;;6.50;;
1591;SDS011;789;51.612;7.510;2023-04-01T13:21:46;7.03;;;6.33;;
1591;SDS011;789;51.612;7.510;2023-04-01T13:24:31;6.43;;;5.93;;
1591;SDS011;789;51.612;7.510;2023-04-01T13:27:09;6.70;;;6.10;;
1591;SDS011;789;51.612;7.510;2023-04-01T13:29:44;6.90;;;6.30;;
1591;SDS011;789;51.612;7.510;2023-04-01T13:32:19;7.30;;;6.70;;
1591;SDS011;789;51.612;7.510;2023-04-01T13:35:08;6.67;;;6.07;;
1591;SDS011;789;51.612;7.510;2023-04-01T13:40:40;6.63;;;5.93;;
1591;SDS011;789;51.612;7.510;2023-04-01T13:43:16;6.37;;;5.77;;
1591;SDS011;789;51.612;7.510;2023-04-01T13:51:53;5.77;;;5.17;;
1591;SDS011;789;51.612;7.510;2023-04-01T13:54:56;5.90;;;5.27;;
1591;SDS011;789;51.612;7.510;2023-04-01T13:57:48;5.10;;;4.63;;
1591;SDS011;789;51.612;7.510;2023-04-01T14:00:23;5.30;;;4.80;;
1591;SDS011;789;51.612;7.510;2023-04-01T14:03:04;5.73;;;5.13;;
1591;SDS011;789;51.612;7.510;2023-04-01T14:05:50;7.87;;;6.07;;
1591;SDS011;789;51.612;7.510;2023-04-01T14:08:32;5.80;;;5.17;;
1591;SDS011;789;51.612;7.510;2023-04-01T14:11:13;6.00;;;5.50;;
1591;SDS011;789;51.612;7.510;2023-04-01T14:13:50;6.53;;;5.60;;
1591;SDS011;789;51.612;7.510;2023-04-01T14:19:23;5.60;;;5.10;;
1591;SDS011;789;51.612;7.510;2023-04-01T14:21:59;7.13;;;6.20;;
1591;SDS011;789;51.612;7.510;2023-04-01T14:24:42;5.40;;;4.90;;
1591;SDS011;789;51.612;7.510;2023-04-01T14:27:27;14.63;;;12.47;;
1591;SDS011;789;51.612;7.510;2023-04-01T14:30:15;10.23;;;9.23;;
1591;SDS011;789;51.612;7.510;2023-04-01T14:32:56;8.30;;;7.47;;
1591;SDS011;789;51.612;7.510;2023-04-01T14:35:33;6.33;;;5.73;;
1591;SDS011;789;51.612;7.510;2023-04-01T14:40:54;6.00;;;5.47;;
1591;SDS011;789;51.612;7.510;2023-04-01T14:43:38;5.77;;;5.20;;
1591;SDS011;789;51.612;7.510;2023-04-01T14:46:33;6.43;;;5.07;;
1591;SDS011;789;51.612;7.510;2023-04-01T14:49:15;5.80;;;5.20;;
1591;SDS011;789;51.612;7.510;2023-04-01T14:51:48;5.70;;;4.93;;
1591;SDS011;789;51.612;7.510;2023-04-01T14:54:17;8.20;;;5.53;;
1591;SDS011;789;51.612;7.510;2023-04-01T14:56:48;5.53;;;5.03;;
1591;SDS011;789;51.612;7.510;2023-04-01T14:59:27;5.90;;;5.30;;
1591;SDS011;789;51.612;7.510;2023-04-01T15:01:56;6.40;;;5.80;;
1591;SDS011;789;51.612;7.510;2023-04-01T15:07:42;7.40;;;6.70;;
1591;SDS011;789;51.612;7.510;2023-04-01T15:14:04;8.40;;;7.50;;
1591;SDS011;789;51.612;7.510;2023-04-01T15:17:02;9.27;;;8.37;;
1591;SDS011;789;51.612;7.510;2023-04-01T15:19:47;8.60;;;7.70;;
1591;SDS011;789;51.612;7.510;2023-04-01T15:22:28;9.17;;;8.30;;
1591;SDS011;789;51.612;7.510;2023-04-01T15:25:27;9.83;;;8.93;;
1591;SDS011;789;51.612;7.510;2023-04-01T15:28:06;15.20;;;9.70;;
1591;SDS011;789;51.612;7.510;2023-04-01T15:30:45;11.60;;;10.40;;
1591;SDS011;789;51.612;7.510;2023-04-01T15:33:22;11.27;;;10.13;;
1591;SDS011;789;51.612;7.510;2023-04-01T15:35:59;11.03;;;9.33;;
1591;SDS011;789;51.612;7.510;2023-04-01T15:38:33;11.47;;;10.37;;
1591;SDS011;789;51.612;7.510;2023-04-01T15:41:08;11.43;;;9.03;;
1591;SDS011;789;51.612;7.510;2023-04-01T15:43:41;10.57;;;9.47;;
1591;SDS011;789;51.612;7.510;2023-04-01T15:49:26;9.63;;;8.73;;
1591;SDS011;789;51.612;7.510;2023-04-01T15:52:03;11.60;;;10.43;;
1591;SDS011;789;51.612;7.510;2023-04-01T15:54:57;10.57;;;9.53;;
1591;SDS011;789;51.612;7.510;2023-04-01T15:57:40;12.17;;;10.93;;
1591;SDS011;789;51.612;7.510;2023-04-01T16:00:22;12.77;;;11.47;;
1591;SDS011;789;51.612;7.510;2023-04-01T16:02:53;13.57;;;12.20;;
1591;SDS011;789;51.612;7.510;2023-04-01T16:05:47;12.40;;;11.20;;
1591;SDS011;789;51.612;7.510;2023-04-01T16:08:41;13.30;;;12.00;;
1591;SDS011;789;51.612;7.510;2023-04-01T16:11:25;13.80;;;12.40;;
1591;SDS011;789;51.612;7.510;2023-04-01T16:14:07;12.90;;;11.70;;
1591;SDS011;789;51.612;7.510;2023-04-01T16:16:47;13.07;;;11.77;;
1591;SDS011;789;51.612;7.510;2023-04-01T16:19:32;13.30;;;11.40;;
1591;SDS011;789;51.612;7.510;2023-04-01T16:22:07;12.50;;;11.20;;
1591;SDS011;789;51.612;7.510;2023-04-01T16:24:40;12.23;;;11.10;;
1591;SDS011;789;51.612;7.510;2023-04-01T16:27:13;14.10;;;11.47;;
1591;SDS011;789;51.612;7.510;2023-04-01T16:29:45;13.37;;;11.90;;
1591;SDS011;789;51.612;7.510;2023-04-01T16:32:18;13.57;;;12.27;;
1591;SDS011;789;51.612;7.510;2023-04-01T16:34:58;13.70;;;12.30;;
1591;SDS011;789;51.612;7.510;2023-04-01T16:37:45;11.77;;;10.57;;
1591;SDS011;789;51.612;7.510;2023-04-01T16:40:16;11.67;;;10.47;;
1591;SDS011;789;51.612;7.510;2023-04-01T16:42:52;11.07;;;9.97;;
1591;SDS011;789;51.612;7.510;2023-04-01T16:45:26;13.00;;;11.30;;
1591;SDS011;789;51.612;7.510;2023-04-01T16:48:05;10.13;;;9.20;;
1591;SDS011;789;51.612;7.510;2023-04-01T16:50:42;12.23;;;11.03;;
1591;SDS011;789;51.612;7.510;2023-04-01T16:53:21;11.27;;;10.17;;
1591;SDS011;789;51.612;7.510;2023-04-01T16:56:02;10.73;;;9.73;;
1591;SDS011;789;51.612;7.510;2023-04-01T16:58:37;10.00;;;9.10;;
1591;SDS011;789;51.612;7.510;2023-04-01T17:01:09;10.97;;;9.87;;
1591;SDS011;789;51.612;7.510;2023-04-01T17:03:41;8.87;;;8.07;;
1591;SDS011;789;51.612;7.510;2023-04-01T17:06:20;8.37;;;7.67;;
1591;SDS011;789;51.612;7.510;2023-04-01T17:09:04;8.10;;;7.40;;
1591;SDS011;789;51.612;7.510;2023-04-01T17:11:43;7.90;;;7.17;;
1591;SDS011;789;51.612;7.510;2023-04-01T17:14:17;7.47;;;6.77;;
1591;SDS011;789;51.612;7.510;2023-04-01T17:17:00;7.33;;;6.63;;
1591;SDS011;789;51.612;7.510;2023-04-01T17:19:42;8.93;;;8.00;;
1591;SDS011;789;51.612;7.510;2023-04-01T17:22:20;8.60;;;7.80;;
1591;SDS011;789;51.612;7.510;2023-04-01T17:25:01;9.27;;;8.27;;
1591;SDS011;789;51.612;7.510;2023-04-01T17:27:42;10.13;;;9.13;;
1591;SDS011;789;51.612;7.510;2023-04-01T17:30:30;10.50;;;9.50;;
1591;SDS011;789;51.612;7.510;2023-04-01T17:33:06;9.73;;;8.80;;
1591;SDS011;789;51.612;7.510;2023-04-01T17:35:51;11.43;;;10.23;;
1591;SDS011;789;51.612;7.510;2023-04-01T17:38:34;10.70;;;9.27;;
1591;SDS011;789;51.612;7.510;2023-04-01T17:41:16;10.90;;;9.80;;
1591;SDS011;789;51.612;7.510;2023-04-01T17:43:55;10.73;;;9.73;;
1591;SDS011;789;51.612;7.510;2023-04-01T17:46:34;10.47;;;9.47;;
1591;SDS011;789;51.612;7.510;2023-04-01T17:49:15;12.40;;;11.10;;
1591;SDS011;789;51.612;7.510;2023-04-01T17:51:50;12.40;;;11.10;;
1591;SDS011;789;51.612;7.510;2023-04-01T17:54:26;11.73;;;10.60;;